Time;durP1;ratioP1;P1;durP2;ratioP2;P2;SDS_P1;SDS_P2;PMS_P1;PMS_P2;Temp;Humidity;BMP_temperature;BMP_pressure;BME280_temperature;BME280_humidity;BME280_pressure;Samples;Min_cycle;Max_cycle;Signal;HPM_P1;HPM_P2
2023/09/18 00:00:15;;;;;;;6.82;0.85;;;16.60;99.90;;;;;;5084246;28;20046;-72
2023/09/18 00:02:41;;;;;;;1.70;1.02;;;16.60;99.90;;;;;;5084839;28;20055;-72
2023/09/18 00:05:07;;;;;;;2.38;1.10;;;16.60;99.90;;;;;;5084652;28;20046;-71
2023/09/18 00:07:33;;;;;;;2.33;0.85;;;16.50;99.90;;;;;;5113344;27;20047;-72
2023/09/18 00:09:58;;;;;;;2.80;1.20;;;16.50;99.90;;;;;;5085752;28;20036;-72
2023/09/18 00:12:24;;;;;;;2.65;1.30;;;16.50;99.90;;;;;;5100231;28;20484;-72
2023/09/18 00:14:50;;;;;;;1.95;1.08;;;16.50;99.90;;;;;;5084604;28;20035;-72
2023/09/18 00:17:17;;;;;;;2.58;1.40;;;16.50;99.90;;;;;;5114494;27;20089;-72
2023/09/18 00:19:43;;;;;;;2.30;1.23;;;16.60;99.90;;;;;;5084128;28;20044;-73
2023/09/18 00:22:09;;;;;;;2.20;1.27;;;16.60;99.90;;;;;;5116420;28;20047;-72
2023/09/18 00:24:34;;;;;;;1.88;0.88;;;16.70;99.90;;;;;;5083591;28;20043;-73
2023/09/18 00:27:00;;;;;;;1.20;1.02;;;16.80;99.90;;;;;;5119946;28;20048;-72
2023/09/18 00:29:26;;;;;;;2.78;1.25;;;16.80;99.90;;;;;;5083899;28;20103;-71
2023/09/18 00:31:52;;;;;;;2.72;1.30;;;16.80;99.90;;;;;;5068047;28;20040;-72
2023/09/18 00:34:17;;;;;;;1.33;1.15;;;16.90;99.90;;;;;;5084830;28;20051;-72
2023/09/18 00:36:43;;;;;;;2.55;1.27;;;16.90;99.90;;;;;;5119834;28;20451;-72
2023/09/18 00:39:09;;;;;;;2.03;1.17;;;16.90;99.90;;;;;;5081426;28;20098;-72
2023/09/18 00:41:35;;;;;;;1.67;1.13;;;16.90;99.90;;;;;;5081324;28;20046;-72
2023/09/18 00:44:01;;;;;;;1.52;0.90;;;16.90;99.90;;;;;;5082383;28;20043;-72
2023/09/18 00:46:27;;;;;;;2.38;1.58;;;16.90;99.90;;;;;;5082975;28;20501;-72
2023/09/18 00:48:54;;;;;;;1.65;0.70;;;16.90;99.90;;;;;;5067253;28;20048;-71
2023/09/18 00:51:20;;;;;;;1.52;1.10;;;16.90;99.90;;;;;;5078680;28;20035;-71
2023/09/18 00:53:48;;;;;;;2.67;1.42;;;16.90;99.90;;;;;;5081635;28;20640;-72
2023/09/18 00:56:14;;;;;;;1.65;1.00;;;16.90;99.90;;;;;;5081834;28;20411;-72
2023/09/18 00:58:40;;;;;;;1.92;1.25;;;16.90;99.90;;;;;;5115962;28;20592;-72
2023/09/18 01:01:06;;;;;;;5.47;0.90;;;17.00;99.90;;;;;;5077526;28;20145;-71
2023/09/18 01:03:32;;;;;;;1.13;0.22;;;17.00;99.90;;;;;;5076453;28;20155;-71
2023/09/18 01:05:58;;;;;;;1.13;0.82;;;17.00;99.90;;;;;;5098114;28;20120;-71
2023/09/18 01:08:24;;;;;;;1.52;1.00;;;17.00;99.90;;;;;;5111214;28;20075;-72
2023/09/18 01:11:09;;;;;;;3.50;1.60;;;17.00;99.90;;;;;;5080107;28;20047;-71
2023/09/18 01:13:41;;;;;;;;;;;17.00;99.90;;;;;;5082618;28;20159;-71
2023/09/18 01:16:24;;;;;;;2.05;1.05;;;16.90;99.90;;;;;;5099209;28;19916;-71
2023/09/18 01:18:50;;;;;;;2.35;1.70;;;17.00;99.90;;;;;;5119151;28;20145;-71
2023/09/18 01:21:18;;;;;;;2.55;1.65;;;17.00;99.90;;;;;;5114962;28;20257;-71
2023/09/18 01:23:43;;;;;;;3.38;1.73;;;17.00;99.90;;;;;;5082487;28;20036;-71
2023/09/18 01:26:09;;;;;;;2.17;1.70;;;17.00;99.90;;;;;;5082698;28;20032;-71
2023/09/18 01:28:35;;;;;;;3.20;1.60;;;17.00;99.90;;;;;;5118222;27;20048;-71
2023/09/18 01:31:00;;;;;;;4.70;2.22;;;17.00;99.90;;;;;;5123197;27;20448;-71
2023/09/18 01:33:28;;;;;;;3.33;1.85;;;17.00;99.90;;;;;;5114812;27;20100;-71
2023/09/18 01:35:55;;;;;;;5.95;2.20;;;17.00;99.90;;;;;;5105248;28;20047;-72
2023/09/18 01:38:23;;;;;;;3.58;1.83;;;17.00;99.90;;;;;;5118044;27;20040;-71
2023/09/18 01:40:50;;;;;;;2.50;1.50;;;17.10;99.90;;;;;;5071690;28;20046;-72
2023/09/18 01:43:16;;;;;;;4.05;2.78;;;17.10;99.90;;;;;;5083715;28;20082;-71
2023/09/18 01:45:42;;;;;;;5.28;2.42;;;17.10;99.90;;;;;;5086768;28;20472;-71
2023/09/18 01:48:08;;;;;;;3.78;2.38;;;17.10;99.90;;;;;;5117728;27;20152;-71
2023/09/18 01:50:36;;;;;;;3.20;2.45;;;17.10;99.90;;;;;;5086854;28;20047;-70
2023/09/18 01:53:02;;;;;;;3.03;2.35;;;17.10;99.90;;;;;;5070261;28;20092;-71
2023/09/18 01:55:29;;;;;;;2.78;2.08;;;17.10;99.90;;;;;;5119508;27;20450;-71
2023/09/18 01:57:55;;;;;;;3.58;2.63;;;17.20;99.90;;;;;;5119533;27;20070;-70
2023/09/18 02:00:21;;;;;;;4.35;2.45;;;17.10;99.90;;;;;;5120740;27;20046;-71
2023/09/18 02:02:47;;;;;;;4.65;3.13;;;17.20;99.90;;;;;;5083966;28;20064;-71
2023/09/18 02:05:13;;;;;;;3.95;2.33;;;17.20;99.90;;;;;;5120958;27;20039;-71
2023/09/18 02:07:39;;;;;;;4.10;2.78;;;17.20;99.90;;;;;;5085543;28;20036;-71
2023/09/18 02:10:05;;;;;;;5.10;2.88;;;17.20;99.90;;;;;;5118406;27;20606;-71
2023/09/18 02:12:31;;;;;;;3.95;2.80;;;17.20;99.90;;;;;;5084596;28;20058;-71
2023/09/18 02:14:58;;;;;;;4.22;2.50;;;17.20;99.90;;;;;;5082229;28;20463;-71
2023/09/18 02:17:24;;;;;;;4.10;3.10;;;17.20;99.90;;;;;;5120257;27;20047;-71
2023/09/18 02:19:50;;;;;;;3.67;2.70;;;17.30;99.90;;;;;;5119937;27;20172;-71
2023/09/18 02:22:15;;;;;;;4.32;3.25;;;17.30;99.90;;;;;;5117607;27;20423;-71
2023/09/18 02:24:41;;;;;;;6.00;3.17;;;17.30;99.90;;;;;;5084982;28;20575;-71
2023/09/18 02:27:07;;;;;;;7.03;2.75;;;17.30;99.90;;;;;;5090794;28;20035;-71
2023/09/18 02:29:33;;;;;;;4.78;2.67;;;17.30;99.90;;;;;;5062713;28;20035;-71
2023/09/18 02:31:58;;;;;;;4.43;3.17;;;17.40;99.90;;;;;;5120428;27;20032;-71
2023/09/18 02:34:24;;;;;;;4.15;3.22;;;17.40;99.90;;;;;;5116100;27;20043;-71
2023/09/18 02:36:49;;;;;;;3.80;2.78;;;17.50;99.90;;;;;;5118294;27;20027;-71
2023/09/18 02:39:15;;;;;;;5.63;3.08;;;17.50;99.90;;;;;;5077816;28;20109;-71
2023/09/18 02:41:41;;;;;;;4.22;2.75;;;17.50;99.90;;;;;;5116166;27;20114;-71
2023/09/18 02:44:06;;;;;;;3.90;2.55;;;17.50;99.90;;;;;;5085050;28;20060;-71
2023/09/18 02:46:33;;;;;;;4.63;3.25;;;17.50;99.90;;;;;;5116177;27;20048;-70
2023/09/18 02:48:58;;;;;;;3.67;2.95;;;17.50;99.90;;;;;;5114530;27;20093;-71
2023/09/18 02:51:25;;;;;;;4.05;2.80;;;17.50;99.90;;;;;;5080569;28;20063;-71
2023/09/18 02:53:51;;;;;;;4.90;2.80;;;17.50;99.90;;;;;;5082865;28;20040;-71
2023/09/18 02:56:16;;;;;;;2.92;2.47;;;17.40;99.90;;;;;;5115519;27;20119;-70
2023/09/18 02:58:42;;;;;;;3.13;2.28;;;17.50;99.90;;;;;;5117972;27;20074;-71
2023/09/18 03:01:08;;;;;;;4.90;2.95;;;17.50;99.90;;;;;;5065718;28;20143;-71
2023/09/18 03:03:34;;;;;;;3.72;2.80;;;17.50;99.90;;;;;;5084073;28;20321;-71
2023/09/18 03:06:04;;;;;;;3.72;2.67;;;17.50;99.90;;;;;;5114743;27;20094;-71
2023/09/18 03:08:30;;;;;;;4.57;3.33;;;17.50;99.90;;;;;;5084261;28;20492;-70
2023/09/18 03:10:56;;;;;;;3.00;2.47;;;17.50;99.90;;;;;;5098701;28;20090;-69
2023/09/18 03:13:22;;;;;;;4.68;2.47;;;17.50;99.90;;;;;;5116555;27;20043;-69
2023/09/18 03:15:48;;;;;;;5.43;2.72;;;17.50;99.90;;;;;;5113424;27;20068;-70
2023/09/18 03:18:14;;;;;;;4.25;2.72;;;17.50;99.90;;;;;;5118512;27;20071;-70
2023/09/18 03:20:40;;;;;;;7.65;2.90;;;17.50;99.90;;;;;;5113984;27;20640;-70
2023/09/18 03:23:06;;;;;;;4.55;2.85;;;17.60;99.90;;;;;;5115723;27;20071;-70
2023/09/18 03:25:31;;;;;;;4.38;3.28;;;17.60;99.90;;;;;;5086649;28;20108;-70
2023/09/18 03:27:57;;;;;;;5.13;2.42;;;17.60;99.90;;;;;;5114814;27;20111;-70
2023/09/18 03:30:24;;;;;;;2.95;2.53;;;17.60;99.90;;;;;;5080469;28;20044;-69
2023/09/18 03:32:50;;;;;;;3.97;2.72;;;17.60;99.90;;;;;;5082663;28;20617;-70
2023/09/18 03:35:18;;;;;;;2.45;2.05;;;17.60;99.90;;;;;;5116389;27;20106;-71
2023/09/18 03:37:45;;;;;;;2.55;2.15;;;17.60;99.90;;;;;;5084540;28;20108;-71
2023/09/18 03:40:11;;;;;;;3.85;2.70;;;17.60;99.90;;;;;;5086622;28;20074;-71
2023/09/18 03:42:37;;;;;;;2.78;2.40;;;17.60;99.90;;;;;;5081731;28;20050;-72
2023/09/18 03:45:05;;;;;;;3.58;2.35;;;17.70;99.90;;;;;;5116017;27;20044;-73
2023/09/18 03:47:31;;;;;;;6.68;2.70;;;17.70;99.90;;;;;;5083582;28;20042;-72
2023/09/18 03:49:57;;;;;;;6.68;2.15;;;17.70;99.90;;;;;;5086350;28;20035;-73
2023/09/18 03:52:23;;;;;;;6.10;2.47;;;17.70;99.90;;;;;;5082599;28;20101;-73
2023/09/18 03:54:49;;;;;;;4.05;2.42;;;17.80;99.90;;;;;;5107170;28;20040;-73
2023/09/18 03:57:15;;;;;;;2.78;2.10;;;17.80;99.90;;;;;;5097361;28;20072;-73
2023/09/18 03:59:40;;;;;;;3.83;2.80;;;17.80;99.90;;;;;;5089766;28;20089;-72
2023/09/18 04:02:06;;;;;;;4.72;2.97;;;17.80;99.90;;;;;;5080772;28;20048;-72
2023/09/18 04:04:32;;;;;;;3.88;2.63;;;17.80;99.90;;;;;;5085418;28;20046;-72
2023/09/18 04:06:58;;;;;;;4.72;2.45;;;17.80;99.90;;;;;;5114091;27;20046;-72
2023/09/18 04:09:23;;;;;;;2.35;2.13;;;17.80;99.90;;;;;;5118387;27;20075;-72
2023/09/18 04:11:49;;;;;;;2.40;1.65;;;17.80;99.90;;;;;;5082194;28;20066;-72
2023/09/18 04:14:15;;;;;;;2.45;1.83;;;17.80;99.90;;;;;;5111681;28;20090;-72
2023/09/18 04:16:41;;;;;;;2.90;2.13;;;17.80;99.90;;;;;;5111272;28;20040;-72
2023/09/18 04:19:08;;;;;;;2.58;2.03;;;17.80;99.90;;;;;;5113456;28;20119;-72
2023/09/18 04:21:33;;;;;;;3.53;2.28;;;17.80;99.90;;;;;;5114343;28;20123;-72
2023/09/18 04:23:59;;;;;;;3.83;1.95;;;17.90;99.90;;;;;;5079155;28;20099;-72
2023/09/18 04:26:29;;;;;;;3.20;2.05;;;17.90;99.90;;;;;;5115157;27;20405;-72
2023/09/18 04:28:56;;;;;;;2.47;1.92;;;17.90;99.90;;;;;;5077310;28;20032;-72
2023/09/18 04:31:22;;;;;;;3.38;2.00;;;17.90;99.90;;;;;;5119122;28;20054;-72
2023/09/18 04:33:48;;;;;;;1.83;1.63;;;17.90;99.90;;;;;;5085034;28;20031;-72
2023/09/18 04:36:14;;;;;;;2.35;1.55;;;17.90;99.90;;;;;;5116568;28;20068;-72
2023/09/18 04:38:39;;;;;;;9.80;2.80;;;18.00;99.90;;;;;;5080359;28;20128;-71
2023/09/18 04:41:07;;;;;;;3.53;2.22;;;18.00;99.90;;;;;;5081242;28;20036;-72
2023/09/18 04:43:34;;;;;;;2.55;2.03;;;18.00;99.90;;;;;;5065906;28;20372;-72
2023/09/18 04:46:04;;;;;;;2.45;1.58;;;18.00;99.90;;;;;;5081710;28;20115;-71
2023/09/18 04:48:29;;;;;;;2.80;2.00;;;18.00;99.90;;;;;;5079791;28;20078;-72
2023/09/18 04:50:56;;;;;;;3.75;1.90;;;18.00;99.90;;;;;;5099038;28;20063;-71
2023/09/18 04:53:22;;;;;;;2.67;1.83;;;18.00;99.90;;;;;;5120819;28;20046;-71
2023/09/18 04:55:49;;;;;;;2.45;1.88;;;18.00;99.90;;;;;;5084056;28;20035;-72
2023/09/18 04:58:15;;;;;;;5.20;2.50;;;18.10;99.90;;;;;;5114512;27;20066;-71
2023/09/18 05:00:41;;;;;;;3.55;1.95;;;18.00;99.90;;;;;;5079285;28;20052;-71
2023/09/18 05:03:08;;;;;;;3.58;2.72;;;18.00;99.90;;;;;;5086753;27;20056;-71
2023/09/18 05:05:34;;;;;;;3.67;2.33;;;18.00;99.90;;;;;;5080298;28;20082;-71
2023/09/18 05:08:03;;;;;;;2.22;1.83;;;18.00;99.90;;;;;;5085109;28;20071;-71
2023/09/18 05:10:29;;;;;;;3.00;2.45;;;18.10;99.90;;;;;;5084001;28;20050;-71
2023/09/18 05:12:58;;;;;;;2.50;1.92;;;18.10;99.90;;;;;;5116390;27;20039;-71
2023/09/18 05:15:26;;;;;;;5.47;2.03;;;18.10;99.90;;;;;;5114264;27;20113;-71
2023/09/18 05:17:56;;;;;;;3.28;2.10;;;18.10;99.90;;;;;;5078240;28;20046;-71
2023/09/18 05:20:24;;;;;;;3.53;2.33;;;18.10;99.90;;;;;;5115964;27;20027;-71
2023/09/18 05:22:54;;;;;;;2.30;1.58;;;18.10;99.90;;;;;;5067755;28;20139;-71
2023/09/18 05:25:21;;;;;;;4.70;2.13;;;18.10;99.90;;;;;;5088102;28;20062;-71
2023/09/18 05:27:49;;;;;;;2.92;1.98;;;18.10;99.90;;;;;;5086243;28;20108;-71
2023/09/18 05:30:18;;;;;;;3.20;2.17;;;18.10;99.90;;;;;;5116264;27;20248;-71
2023/09/18 05:32:45;;;;;;;4.55;2.30;;;18.10;99.90;;;;;;5085917;28;20032;-71
2023/09/18 05:35:12;;;;;;;2.97;1.60;;;18.10;99.90;;;;;;5116402;27;20535;-71
2023/09/18 05:37:38;;;;;;;3.03;1.52;;;18.20;99.90;;;;;;5121706;27;20064;-71
2023/09/18 05:40:09;;;;;;;4.15;2.33;;;18.20;99.90;;;;;;5120087;27;20588;-71
2023/09/18 05:42:36;;;;;;;4.93;1.67;;;18.10;99.90;;;;;;5083018;28;20046;-71
2023/09/18 05:45:04;;;;;;;3.58;1.48;;;18.10;99.90;;;;;;5070104;28;20047;-71
2023/09/18 05:47:33;;;;;;;2.92;1.70;;;18.10;99.90;;;;;;5089116;28;20200;-71
2023/09/18 05:49:58;;;;;;;9.02;3.03;;;18.10;99.90;;;;;;5122300;27;20123;-71
2023/09/18 05:52:25;;;;;;;2.95;1.80;;;18.10;99.90;;;;;;5081699;28;20067;-70
2023/09/18 05:54:51;;;;;;;2.85;1.50;;;18.10;99.90;;;;;;5122819;27;20449;-70
2023/09/18 05:57:17;;;;;;;2.45;1.50;;;18.10;99.90;;;;;;5120520;27;20061;-70
2023/09/18 05:59:46;;;;;;;3.25;1.70;;;18.10;99.90;;;;;;5120903;27;20468;-71
2023/09/18 06:02:12;;;;;;;3.15;2.05;;;18.10;99.90;;;;;;5096024;28;20068;-71
2023/09/18 06:04:38;;;;;;;2.58;1.90;;;18.10;99.90;;;;;;5079862;28;20051;-71
2023/09/18 06:07:04;;;;;;;2.42;1.55;;;18.10;99.90;;;;;;5078849;28;20048;-71
2023/09/18 06:09:29;;;;;;;3.25;1.95;;;18.10;99.90;;;;;;5081829;28;20051;-70
2023/09/18 06:11:55;;;;;;;2.67;1.63;;;18.10;99.90;;;;;;5101823;27;20109;-71
2023/09/18 06:14:22;;;;;;;2.33;1.80;;;18.10;99.90;;;;;;5083765;28;20094;-71
2023/09/18 06:16:48;;;;;;;3.00;2.10;;;18.10;99.90;;;;;;5085659;28;20047;-71
2023/09/18 06:19:49;;;;;;;2.47;1.95;;;18.20;99.90;;;;;;5121400;27;20036;-71
2023/09/18 06:22:15;;;;;;;6.80;1.95;;;18.20;99.90;;;;;;5060909;28;20052;-71
2023/09/18 06:24:42;;;;;;;3.90;1.90;;;18.20;99.90;;;;;;5122759;27;20036;-71
2023/09/18 06:27:07;;;;;;;3.50;2.50;;;18.20;99.90;;;;;;5077530;28;20029;-70
2023/09/18 06:29:34;;;;;;;3.50;1.60;;;18.20;99.90;;;;;;5081938;28;20036;-71
2023/09/18 06:32:00;;;;;;;3.63;1.75;;;18.30;99.90;;;;;;5118530;27;20035;-70
2023/09/18 06:34:26;;;;;;;2.75;1.42;;;18.30;99.90;;;;;;5083341;28;20119;-71
2023/09/18 06:36:52;;;;;;;4.07;1.58;;;18.30;99.90;;;;;;5085372;28;20115;-71
2023/09/18 06:39:17;;;;;;;4.95;2.08;;;18.30;99.90;;;;;;5081488;28;20040;-70
2023/09/18 06:41:43;;;;;;;6.20;1.63;;;18.30;99.90;;;;;;5085860;28;20333;-71
2023/09/18 06:44:09;;;;;;;5.38;2.78;;;18.30;99.90;;;;;;5079905;28;20036;-71
2023/09/18 06:46:35;;;;;;;2.47;1.83;;;18.40;99.90;;;;;;5081915;28;20029;-71
2023/09/18 06:49:00;;;;;;;1.92;1.38;;;18.40;99.90;;;;;;5077551;28;20123;-71
2023/09/18 06:51:34;;;;;;;3.60;1.80;;;18.40;99.90;;;;;;5081739;28;20415;-70
2023/09/18 06:54:05;;;;;;;8.00;1.92;;;18.40;99.90;;;;;;5110880;27;20040;-69
2023/09/18 06:56:30;;;;;;;3.00;1.80;;;18.40;99.90;;;;;;5120174;27;20056;-67
2023/09/18 06:58:56;;;;;;;2.47;1.65;;;18.40;99.90;;;;;;5086612;28;20032;-69
2023/09/18 07:01:24;;;;;;;2.30;1.75;;;18.30;99.90;;;;;;5084482;28;20051;-67
2023/09/18 07:03:50;;;;;;;3.42;1.88;;;18.20;99.90;;;;;;5080626;28;20036;-66
2023/09/18 07:06:16;;;;;;;3.20;1.92;;;18.10;99.90;;;;;;5097148;28;20063;-69
2023/09/18 07:08:43;;;;;;;4.90;2.25;;;18.00;99.90;;;;;;5113273;28;20498;-69
2023/09/18 07:11:09;;;;;;;2.92;2.17;;;18.00;99.90;;;;;;5112148;27;20036;-66
2023/09/18 07:13:35;;;;;;;8.80;2.38;;;18.00;99.90;;;;;;5099402;28;20058;-66
2023/09/18 07:16:01;;;;;;;3.35;2.30;;;17.90;99.90;;;;;;5105781;28;20035;-66
2023/09/18 07:18:26;;;;;;;2.95;2.10;;;17.90;99.90;;;;;;5103555;28;20043;-66
2023/09/18 07:20:52;;;;;;;2.72;2.03;;;17.90;99.90;;;;;;5100181;28;20046;-66
2023/09/18 07:23:18;;;;;;;2.83;1.77;;;18.00;99.90;;;;;;5082122;28;20048;-66
2023/09/18 07:25:44;;;;;;;2.03;1.40;;;17.90;99.90;;;;;;5097969;28;20043;-66
2023/09/18 07:28:15;;;;;;;4.20;1.77;;;17.90;99.90;;;;;;5099487;28;20039;-66
2023/09/18 07:30:41;;;;;;;2.67;1.80;;;18.10;99.90;;;;;;5103922;27;20150;-66
2023/09/18 07:33:07;;;;;;;5.05;2.97;;;18.10;99.90;;;;;;5103991;28;20449;-66
2023/09/18 07:35:33;;;;;;;2.60;1.80;;;18.10;99.90;;;;;;5100733;28;20110;-66
2023/09/18 07:37:59;;;;;;;3.10;1.95;;;18.10;99.90;;;;;;5085091;28;20041;-66
2023/09/18 07:40:24;;;;;;;3.45;2.08;;;18.20;99.90;;;;;;5102220;28;20064;-66
2023/09/18 07:42:50;;;;;;;5.07;2.10;;;18.20;99.90;;;;;;5101722;28;20032;-66
2023/09/18 07:45:17;;;;;;;2.40;1.80;;;18.20;99.90;;;;;;5104295;28;20040;-67
2023/09/18 07:47:43;;;;;;;3.72;1.83;;;18.20;99.90;;;;;;5099980;28;20071;-66
2023/09/18 07:50:09;;;;;;;2.75;1.92;;;18.10;99.90;;;;;;5120423;27;20534;-66
2023/09/18 07:52:35;;;;;;;2.35;1.92;;;18.20;99.90;;;;;;5098416;28;20064;-67
2023/09/18 07:55:01;;;;;;;2.95;2.15;;;18.30;99.90;;;;;;5104907;28;20028;-67
2023/09/18 07:57:32;;;;;;;2.15;1.75;;;18.20;99.90;;;;;;5100480;28;20364;-67
2023/09/18 07:59:58;;;;;;;4.03;2.80;;;18.20;99.90;;;;;;5085292;28;20043;-66
2023/09/18 08:02:25;;;;;;;4.15;2.20;;;18.30;99.90;;;;;;5114664;27;20086;-67
2023/09/18 08:04:52;;;;;;;3.47;2.15;;;18.40;99.90;;;;;;5085201;28;20036;-67
2023/09/18 08:07:19;;;;;;;2.53;2.22;;;18.30;99.90;;;;;;5082485;28;20036;-67
2023/09/18 08:09:47;;;;;;;4.10;2.58;;;18.30;99.90;;;;;;5087859;28;20078;-67
2023/09/18 08:12:13;;;;;;;3.33;1.77;;;18.30;99.90;;;;;;5080874;28;20045;-67
2023/09/18 08:14:39;;;;;;;2.78;1.60;;;18.40;99.90;;;;;;5080393;28;20048;-67
2023/09/18 08:17:04;;;;;;;4.90;2.15;;;18.40;99.90;;;;;;5083344;28;20043;-67
2023/09/18 08:19:33;;;;;;;3.47;1.83;;;18.30;99.90;;;;;;5078878;28;20043;-67
2023/09/18 08:21:59;;;;;;;4.18;2.15;;;18.40;99.90;;;;;;5112346;28;20365;-67
2023/09/18 08:24:25;;;;;;;3.63;1.95;;;18.30;99.90;;;;;;5078869;28;20101;-66
2023/09/18 08:26:51;;;;;;;3.92;1.77;;;18.40;99.90;;;;;;5077766;28;20083;-66
2023/09/18 08:29:17;;;;;;;3.13;2.08;;;18.50;99.90;;;;;;5081027;28;20066;-67
2023/09/18 08:31:43;;;;;;;2.65;1.92;;;18.50;99.90;;;;;;5079923;28;20456;-67
2023/09/18 08:34:09;;;;;;;2.80;2.05;;;18.50;99.90;;;;;;5076647;28;20115;-66
2023/09/18 08:36:35;;;;;;;2.03;1.60;;;18.60;99.90;;;;;;5082091;28;20559;-67
2023/09/18 08:39:01;;;;;;;2.53;2.08;;;18.60;99.90;;;;;;5082918;28;20036;-66
2023/09/18 08:41:30;;;;;;;3.83;1.70;;;18.60;99.90;;;;;;5081341;28;20040;-66
2023/09/18 08:44:00;;;;;;;2.35;2.10;;;18.60;99.90;;;;;;5083756;28;20068;-66
2023/09/18 08:46:26;;;;;;;3.35;1.83;;;18.60;99.90;;;;;;5085475;28;20033;-66
2023/09/18 08:48:53;;;;;;;2.17;1.67;;;18.70;99.90;;;;;;5082614;28;20032;-66
2023/09/18 08:51:21;;;;;;;7.32;1.85;;;18.70;99.90;;;;;;5079849;28;20077;-66
2023/09/18 08:53:46;;;;;;;3.40;2.10;;;18.70;99.90;;;;;;5096201;28;20051;-66
2023/09/18 08:56:14;;;;;;;2.67;2.00;;;18.70;99.90;;;;;;5085266;28;20495;-67
2023/09/18 08:58:42;;;;;;;2.28;1.70;;;18.70;99.90;;;;;;5083478;28;20043;-66
2023/09/18 09:01:11;;;;;;;7.45;2.08;;;18.70;99.90;;;;;;5082712;28;20036;-66
2023/09/18 09:03:38;;;;;;;2.20;1.70;;;18.80;99.90;;;;;;5101349;28;20491;-66
2023/09/18 09:06:05;;;;;;;3.92;1.58;;;18.80;99.90;;;;;;5104915;28;20074;-66
2023/09/18 09:08:31;;;;;;;2.45;1.75;;;18.80;99.90;;;;;;5082925;28;20043;-66
2023/09/18 09:11:00;;;;;;;3.92;2.08;;;18.80;99.90;;;;;;5069892;28;20437;-66
2023/09/18 09:13:26;;;;;;;4.97;2.00;;;18.80;99.90;;;;;;5100799;27;20036;-66
2023/09/18 09:15:57;;;;;;;2.10;1.67;;;18.90;99.90;;;;;;5103044;28;20303;-66
2023/09/18 09:18:25;;;;;;;3.67;2.65;;;19.00;99.90;;;;;;5101191;28;20061;-66
2023/09/18 09:20:57;;;;;;;2.50;1.67;;;18.90;99.90;;;;;;5105916;27;20097;-65
2023/09/18 09:23:24;;;;;;;3.55;2.03;;;19.00;99.90;;;;;;5106522;28;20031;-66
2023/09/18 09:25:50;;;;;;;2.67;1.90;;;19.00;99.90;;;;;;5101171;28;20383;-65
2023/09/18 09:28:16;;;;;;;2.70;2.25;;;19.20;99.90;;;;;;5088034;28;20031;-66
2023/09/18 09:30:42;;;;;;;2.72;1.65;;;19.10;99.90;;;;;;5107358;28;20044;-66
2023/09/18 09:33:12;;;;;;;2.15;1.50;;;19.30;99.90;;;;;;5107263;28;20031;-65
2023/09/18 09:35:39;;;;;;;4.72;2.25;;;19.50;99.90;;;;;;5103174;28;20139;-65
2023/09/18 09:38:10;;;;;;;3.10;1.85;;;19.50;99.90;;;;;;5103323;28;20477;-65
2023/09/18 09:40:40;;;;;;;2.83;1.85;;;19.70;99.90;;;;;;5123611;27;20406;-65
2023/09/18 09:43:08;;;;;;;2.80;2.10;;;19.80;99.90;;;;;;5123538;27;20189;-66
2023/09/18 09:45:37;;;;;;;4.25;2.05;;;19.80;99.90;;;;;;5106490;28;20052;-65
2023/09/18 09:48:05;;;;;;;4.28;2.10;;;19.90;99.90;;;;;;5103070;28;20047;-65
2023/09/18 09:50:32;;;;;;;4.35;1.88;;;20.00;99.90;;;;;;5106437;28;20056;-65
2023/09/18 09:52:58;;;;;;;2.97;2.13;;;20.10;99.90;;;;;;5119452;27;20325;-65
2023/09/18 09:55:29;;;;;;;2.72;1.75;;;20.10;99.90;;;;;;5082158;28;20065;-66
2023/09/18 09:58:00;;;;;;;2.47;1.63;;;20.10;99.90;;;;;;5085117;28;20390;-65
2023/09/18 10:00:47;;;;;;;6.15;2.28;;;20.20;99.90;;;;;;5106176;28;20472;-66
2023/09/18 10:03:15;;;;;;;5.00;1.80;;;20.30;99.90;;;;;;5103408;27;20385;-65
2023/09/18 10:05:53;;;;;;;2.45;2.00;;;20.60;99.90;;;;;;5103697;28;20046;-65
2023/09/18 10:08:27;;;;;;;3.75;2.35;;;20.60;99.90;;;;;;5103492;28;20357;-65
2023/09/18 10:10:56;;;;;;;3.15;1.92;;;20.60;99.90;;;;;;5105067;28;20429;-65
2023/09/18 10:13:24;;;;;;;2.88;1.88;;;20.60;99.90;;;;;;5101296;28;20146;-65
2023/09/18 10:15:51;;;;;;;2.58;1.88;;;20.70;99.90;;;;;;5082639;28;20044;-65
2023/09/18 10:18:28;;;;;;;2.50;1.52;;;20.80;99.90;;;;;;5104628;28;20054;-66
2023/09/18 10:21:06;;;;;;;3.00;1.65;;;20.90;99.90;;;;;;5101274;28;20136;-66
2023/09/18 10:23:53;;;;;;;2.08;1.45;;;21.10;99.90;;;;;;5102849;28;20079;-66
2023/09/18 10:26:28;;;;;;;5.28;1.70;;;21.50;99.90;;;;;;5090130;28;20174;-65
2023/09/18 10:28:58;;;;;;;3.10;1.63;;;21.70;99.90;;;;;;5104167;27;20034;-66
2023/09/18 10:31:26;;;;;;;5.60;1.55;;;22.00;99.90;;;;;;5105659;28;20205;-66
2023/09/18 10:33:53;;;;;;;2.53;1.63;;;22.50;99.90;;;;;;5101072;28;20075;-66
2023/09/18 10:36:20;;;;;;;3.30;1.67;;;23.10;99.90;;;;;;5112865;27;20110;-66
2023/09/18 10:38:54;;;;;;;1.85;1.40;;;23.20;99.90;;;;;;5100517;28;20043;-66
2023/09/18 10:41:22;;;;;;;1.33;1.08;;;23.40;99.90;;;;;;5099646;28;20039;-65
2023/09/18 10:43:49;;;;;;;2.15;1.58;;;23.80;99.90;;;;;;5113796;27;20043;-66
2023/09/18 10:46:15;;;;;;;2.63;1.17;;;23.90;99.90;;;;;;5099211;28;20035;-66
2023/09/18 10:48:44;;;;;;;1.95;1.10;;;24.40;99.90;;;;;;5103178;28;20482;-66
2023/09/18 10:51:11;;;;;;;1.38;0.88;;;24.50;99.90;;;;;;5087234;28;20051;-65
2023/09/18 10:53:37;;;;;;;1.52;1.02;;;24.10;99.90;;;;;;5098194;28;20122;-65
2023/09/18 10:56:04;;;;;;;3.08;1.15;;;23.70;99.90;;;;;;5104214;28;20028;-65
2023/09/18 10:58:30;;;;;;;2.13;0.73;;;23.30;99.90;;;;;;5080799;28;20067;-65
2023/09/18 11:00:57;;;;;;;2.88;0.73;;;22.80;99.90;;;;;;5096103;28;20460;-65
2023/09/18 11:03:24;;;;;;;1.38;0.68;;;22.40;99.90;;;;;;5099140;28;20143;-65
2023/09/18 11:06:10;;;;;;;0.65;0.57;;;22.10;99.90;;;;;;5098998;28;20113;-66
2023/09/18 11:08:48;;;;;;;0.52;0.40;;;21.80;99.90;;;;;;5099085;28;20067;-66
2023/09/18 11:11:19;;;;;;;2.33;0.65;;;21.50;99.90;;;;;;5102248;28;20044;-65
2023/09/18 11:13:47;;;;;;;3.22;0.98;;;21.40;99.90;;;;;;5108428;27;20470;-66
2023/09/18 11:16:37;;;;;;;1.10;0.57;;;21.20;99.90;;;;;;5101632;28;20047;-66
2023/09/18 11:19:13;;;;;;;1.63;0.80;;;21.20;99.90;;;;;;5097687;28;20488;-66
2023/09/18 11:21:39;;;;;;;1.20;0.73;;;21.30;99.90;;;;;;5099761;28;20067;-65
2023/09/18 11:24:17;;;;;;;1.75;0.40;;;21.60;99.90;;;;;;5097662;28;20115;-66
2023/09/18 11:26:47;;;;;;;1.10;0.70;;;21.80;99.90;;;;;;5104330;28;20051;-66
2023/09/18 11:29:22;;;;;;;1.35;0.70;;;22.00;99.90;;;;;;5099351;28;20036;-65
2023/09/18 11:31:55;;;;;;;1.63;0.68;;;22.50;99.90;;;;;;5105508;28;20032;-66
2023/09/18 11:34:22;;;;;;;3.00;0.80;;;22.70;99.90;;;;;;5101194;28;20109;-66
2023/09/18 11:36:48;;;;;;;0.80;0.55;;;23.00;99.90;;;;;;5097951;28;20044;-66
2023/09/18 11:39:39;;;;;;;1.77;0.82;;;23.10;99.90;;;;;;5103380;28;20071;-66
2023/09/18 11:42:10;;;;;;;0.68;0.57;;;22.90;99.90;;;;;;5098065;27;20531;-67
2023/09/18 11:44:58;;;;;;;1.60;0.65;;;22.50;99.90;;;;;;5103262;28;20032;-66
2023/09/18 11:47:27;;;;;;;1.15;0.50;;;22.20;99.90;;;;;;5103224;28;20040;-66
2023/09/18 11:49:58;;;;;;;0.73;0.47;;;21.80;99.90;;;;;;5083764;28;20035;-66
2023/09/18 11:52:25;;;;;;;1.63;0.60;;;21.50;99.90;;;;;;5097704;28;20028;-66
2023/09/18 11:54:52;;;;;;;0.90;0.65;;;21.40;99.90;;;;;;5106699;27;20075;-66
2023/09/18 11:57:19;;;;;;;0.60;0.40;;;21.20;99.90;;;;;;5097619;28;20111;-67
2023/09/18 11:59:46;;;;;;;1.15;0.57;;;21.20;99.90;;;;;;5089888;28;20047;-67
2023/09/18 12:02:34;;;;;;;1.42;0.80;;;21.20;99.90;;;;;;5095334;28;20063;-67
2023/09/18 12:05:24;;;;;;;1.02;0.52;;;21.10;99.90;;;;;;5098382;28;20055;-67
2023/09/18 12:07:50;;;;;;;0.82;0.60;;;21.40;99.90;;;;;;5100075;28;20079;-67
2023/09/18 12:10:18;;;;;;;0.75;0.70;;;22.00;99.90;;;;;;5105721;28;20036;-68
2023/09/18 12:13:49;;;;;;;2.83;0.77;;;23.00;99.90;;;;;;5097770;28;20040;-68
2023/09/18 12:16:15;;;;;;;1.58;0.68;;;23.70;99.90;;;;;;5060610;28;20029;-67
2023/09/18 12:18:49;;;;;;;2.80;0.80;;;24.90;99.90;;;;;;5091376;28;20446;-68
2023/09/18 12:21:17;;;;;;;0.93;0.65;;;25.10;99.90;;;;;;5093965;28;20126;-67
2023/09/18 12:23:44;;;;;;;0.88;0.40;;;25.60;99.90;;;;;;5094867;28;20044;-68
2023/09/18 12:26:15;;;;;;;1.42;0.70;;;26.20;99.90;;;;;;5096657;28;20047;-68
2023/09/18 12:28:42;;;;;;;3.22;0.43;;;26.80;99.90;;;;;;5068090;28;20048;-68
2023/09/18 12:31:15;;;;;;;1.80;0.57;;;27.20;99.90;;;;;;5101257;28;20119;-68
2023/09/18 12:33:43;;;;;;;2.13;0.47;;;27.60;99.90;;;;;;5083554;28;20050;-68
2023/09/18 12:36:10;;;;;;;2.17;0.60;;;28.00;99.90;;;;;;5113883;28;20122;-66
2023/09/18 12:38:37;;;;;;;0.60;0.30;;;28.10;99.90;;;;;;5095955;28;20360;-66
2023/09/18 12:41:08;;;;;;;0.65;0.45;;;27.70;99.90;;;;;;5082563;28;20058;-67
2023/09/18 12:43:44;;;;;;;0.80;0.50;;;27.00;99.90;;;;;;5114778;28;20044;-66
2023/09/18 12:46:10;;;;;;;0.50;0.30;;;27.10;99.90;;;;;;5116800;27;20039;-68
2023/09/18 12:48:46;;;;;;;0.63;0.40;;;27.50;99.90;;;;;;5114137;27;20118;-67
2023/09/18 12:51:12;;;;;;;0.60;0.40;;;27.30;99.90;;;;;;5078651;28;20487;-68